Throop, New York
Current Conditions -  °F | °C
As of 7:54 PM on Saturday 25 Oct 2014 (Local Time) from KSYR Reporting Station
Scattered Clouds Scattered Clouds  
Wind Chill: 57°   Ceiling: Unl
Heat Index: 57°   Visibility: 10mi
Dew Point: 47°   Wind: 14mph
Humidity: 69%   Direction: 280°W
Pressure: 29.59"   Gusts: NA
Location:  42.9235°N, 76.5525°W
Report Text: KSYR 252354Z 28012KT 10SM FEW032 SCT250 14/08 A2959 RMK AO2 SLP018 60000 T01390083 10189 20139 51023
Loading
Personal Weather Stations






























Interactive Weather Map
Tropical Storm Tracking
New forecast layout! Learn more

10-Day Weather Forecast

Advertisements
Track Severe Weather on mobile